Eendracht — PDVN — position and weather

sailwx.info

Track history (hours):
 
Tides and Currents Weather Stations Pressure Air Temp Water Temp Dewpoint Dewpoint Depression Visibility Wind Speed Wind Dir Waves Ship Positions

Eendracht (Netherlands)

Last reported at 2019-Sep-20 09:30 UTC. Time now 2019-Sep-20 09:37 UTC.
Position N 51°54' E 004°28'.

Length 59 m; beam 12 m; draft 5 m.

Type: Sailing vessel. MMSI: 244543000.

Date/timePositionNaut miles runAvg speedWind from/ knotsBaromVisibWave heightAir tempDewpointWater temp
2019-Sep-20 09:30N 51°54' E 004°28'1 2.5
2019-Sep-20 09:00N 51°54' E 004°26'2 4.9
2019-Sep-20 08:30N 51°54' E 004°22'3 5.0
2019-Sep-20 08:00N 51°54' E 004°18'3 5.2
2019-Sep-20 07:30N 51°54' E 004°22'3 6.0
2019-Sep-20 06:59N 51°54' E 004°27'0 0.0
2019-Sep-20 06:29N 51°54' E 004°27'0 0.0
2019-Sep-20 05:59N 51°54' E 004°27'0 0.0
2019-Sep-20 05:29N 51°54' E 004°27'0 0.0
2019-Sep-20 04:59N 51°54' E 004°27'0 0.0
2019-Sep-20 04:29N 51°54' E 004°27'0 0.0
2019-Sep-20 03:59N 51°54' E 004°27'0 0.0
2019-Sep-20 03:29N 51°54' E 004°27'0 0.0
2019-Sep-20 02:59N 51°54' E 004°27'0 0.0
2019-Sep-20 02:29N 51°54' E 004°27'0 0.0
2019-Sep-20 01:59N 51°54' E 004°27'0 0.0
2019-Sep-20 01:29N 51°54' E 004°27'0 0.0
2019-Sep-20 00:59N 51°54' E 004°27'0 0.0
2019-Sep-20 00:29N 51°54' E 004°27'0 0.0
2019-Sep-19 23:59N 51°54' E 004°27'0 0.0
2019-Sep-19 23:29N 51°54' E 004°27'0 0.0
2019-Sep-19 22:59N 51°54' E 004°27'0 0.0
2019-Sep-19 22:29N 51°54' E 004°27'0 0.0
2019-Sep-19 21:59N 51°54' E 004°27'0 0.0
2019-Sep-19 21:29N 51°54' E 004°27'0 0.0
2019-Sep-19 20:59N 51°54' E 004°27'0 0.0
2019-Sep-19 20:29N 51°54' E 004°27'0 0.0
2019-Sep-19 19:59N 51°54' E 004°27'0 0.0
2019-Sep-19 19:29N 51°54' E 004°27'0 0.0
2019-Sep-19 18:59N 51°54' E 004°27'0 0.0
2019-Sep-19 18:26N 51°54' E 004°27'0 0.0
2019-Sep-19 17:59N 51°54' E 004°27'0 0.0
2019-Sep-19 17:30N 51°54' E 004°27'1 2.5
2019-Sep-19 17:01N 51°54' E 004°29'2 3.6
2019-Sep-19 16:30N 51°54' E 004°26'3 5.3
2019-Sep-19 16:00N 51°54' E 004°22'3 5.7
2019-Sep-19 15:30N 51°54' E 004°17'3 6.6
2019-Sep-19 15:00N 51°54' E 004°23'3 5.5
2019-Sep-19 14:30N 51°54' E 004°27'0 0.0
2019-Sep-19 14:00N 51°54' E 004°27'0 0.0
2019-Sep-19 13:27N 51°54' E 004°27'0 0.0
2019-Sep-19 13:00N 51°54' E 004°27'0 0.0
2019-Sep-19 12:30N 51°54' E 004°27'0 0.0
2019-Sep-19 12:00N 51°54' E 004°27'0 0.0
2019-Sep-19 11:27N 51°54' E 004°27'0 0.0
2019-Sep-19 11:00N 51°54' E 004°27'0 0.0
2019-Sep-19 10:30N 51°54' E 004°27'0 0.0
2019-Sep-19 10:00N 51°54' E 004°27'0 0.0
2019-Sep-19 09:30N 51°54' E 004°27'0 0.0
2019-Sep-19 09:00N 51°54' E 004°27'0 0.0
2019-Sep-19 08:30N 51°54' E 004°27'0 0.0
2019-Sep-19 08:00N 51°54' E 004°27'0 0.0
2019-Sep-19 07:30N 51°54' E 004°27'0 0.0
2019-Sep-19 07:00N 51°54' E 004°27'0 0.0
2019-Sep-19 06:30N 51°54' E 004°27'0 0.0
2019-Sep-19 05:57N 51°54' E 004°27'0 0.0
2019-Sep-19 05:30N 51°54' E 004°27'0 0.0
2019-Sep-19 05:00N 51°54' E 004°27'0 0.0
2019-Sep-19 04:30N 51°54' E 004°27'0 0.0
2019-Sep-19 04:00N 51°54' E 004°27'0 0.0
2019-Sep-19 03:30N 51°54' E 004°27'0 0.0
2019-Sep-19 03:00N 51°54' E 004°27'0 0.0
2019-Sep-19 02:30N 51°54' E 004°27'0 0.0
2019-Sep-19 02:00N 51°54' E 004°27'0 0.0
2019-Sep-19 01:30N 51°54' E 004°27'0 0.0
2019-Sep-19 01:00N 51°54' E 004°27'0 0.0
2019-Sep-19 00:30N 51°54' E 004°27'0 0.0
2019-Sep-19 00:00N 51°54' E 004°27'0 0.0
2019-Sep-18 23:30N 51°54' E 004°27'0 0.0
2019-Sep-18 23:00N 51°54' E 004°27'0 0.0
2019-Sep-18 22:30N 51°54' E 004°27'0 0.0
2019-Sep-18 22:00N 51°54' E 004°27'0 0.0
2019-Sep-18 21:30N 51°54' E 004°27'0 0.0
2019-Sep-18 21:00N 51°54' E 004°27'0 0.0
2019-Sep-18 20:30N 51°54' E 004°27'0 0.0
2019-Sep-18 20:00N 51°54' E 004°27'0 0.0
2019-Sep-18 19:30N 51°54' E 004°27'0 0.0
2019-Sep-18 19:00N 51°54' E 004°27'0 0.0
2019-Sep-18 18:30N 51°54' E 004°27'0 0.0
2019-Sep-18 18:00N 51°54' E 004°27'0 0.0
2019-Sep-18 17:30N 51°54' E 004°27'0 0.0
2019-Sep-18 17:00N 51°54' E 004°27'0 0.0
2019-Sep-18 16:30N 51°54' E 004°27'1 1.4
2019-Sep-18 16:01N 51°54' E 004°28'1 1.2
2019-Sep-18 15:30N 51°54' E 004°27'1 1.5
2019-Sep-18 15:01N 51°53' E 004°26'1 2.8
2019-Sep-18 14:30N 51°54' E 004°24'3 5.2
2019-Sep-18 14:00N 51°54' E 004°20'3 5.3
2019-Sep-18 13:30N 51°54' E 004°16'3 5.0
2019-Sep-18 13:01N 51°56' E 004°13'3 5.0
2019-Sep-18 12:30N 51°57' E 004°10'2 4.6
2019-Sep-18 12:01N 51°58' E 004°06'3 5.3
2019-Sep-18 11:31N 51°58' E 004°02'2 3.4
2019-Sep-18 11:00N 51°59' E 004°04'1 2.1
2019-Sep-18 10:30N 51°59' E 004°03'4 8.2
2019-Sep-18 10:01N 51°58' E 004°09'5 9.1
2019-Sep-18 09:31N 51°55' E 004°15'4 8.2
2019-Sep-18 09:01N 51°54' E 004°21'4 7.3
2019-Sep-18 08:31N 51°54' E 004°27'0 0.0
2019-Sep-18 07:58N 51°54' E 004°27'0 0.0
2019-Sep-18 07:28N 51°54' E 004°27'0 0.0
2019-Sep-18 06:58N 51°54' E 004°27'0 0.0
2019-Sep-18 06:28N 51°54' E 004°27'0 0.0
2019-Sep-18 05:58N 51°54' E 004°27'0 0.0
2019-Sep-18 05:28N 51°54' E 004°27'0 0.0
2019-Sep-18 04:58N 51°54' E 004°27'0 0.0
2019-Sep-18 04:28N 51°54' E 004°27'0 0.0
2019-Sep-18 03:58N 51°54' E 004°27'0 0.0
2019-Sep-18 03:28N 51°54' E 004°27'0 0.0
2019-Sep-18 02:58N 51°54' E 004°27'0 0.0
2019-Sep-18 02:28N 51°54' E 004°27'0 0.0
2019-Sep-18 01:58N 51°54' E 004°27'0 0.0
2019-Sep-18 01:28N 51°54' E 004°27'0 0.0
2019-Sep-18 00:58N 51°54' E 004°27'0 0.0
2019-Sep-18 00:28N 51°54' E 004°27'0 0.0
2019-Sep-17 23:58N 51°54' E 004°27'0 0.0
2019-Sep-17 23:28N 51°54' E 004°27'0 0.0
2019-Sep-17 22:58N 51°54' E 004°27'0 0.0
2019-Sep-17 22:28N 51°54' E 004°27'0 0.0
2019-Sep-17 21:58N 51°54' E 004°27'0 0.0
2019-Sep-17 21:28N 51°54' E 004°27'0 0.0
2019-Sep-17 20:58N 51°54' E 004°27'0 0.0
2019-Sep-17 20:28N 51°54' E 004°27'0 0.0
2019-Sep-17 20:01N 51°54' E 004°27'0 0.0
2019-Sep-17 19:31N 51°54' E 004°27'0 0.0
2019-Sep-17 19:00N 51°54' E 004°27'0 0.0
2019-Sep-17 18:31N 51°54' E 004°27'0 0.0
2019-Sep-17 18:00N 51°54' E 004°27'0 0.0
2019-Sep-17 17:28N 51°54' E 004°27'1 1.5
2019-Sep-17 17:00N 51°54' E 004°28'3 5.5
2019-Sep-17 16:30N 51°54' E 004°24'4 7.8
2019-Sep-17 16:00N 51°54' E 004°18'2 3.4
2019-Sep-17 15:30N 51°54' E 004°20'3 5.1
2019-Sep-17 15:00N 51°54' E 004°25'2 3.4
2019-Sep-17 14:30N 51°54' E 004°27'0 0.0
2019-Sep-17 14:00N 51°54' E 004°27'0 0.0
2019-Sep-17 13:30N 51°54' E 004°27'0 0.0
2019-Sep-17 13:00N 51°54' E 004°27'0 0.0
2019-Sep-17 12:30N 51°54' E 004°27'0 0.0
2019-Sep-17 11:58N 51°54' E 004°27'0 0.0
2019-Sep-17 11:30N 51°54' E 004°27'1 1.1
2019-Sep-17 11:01N 51°54' E 004°28'1 2.6
2019-Sep-17 10:31N 51°54' E 004°26'3 6.1
2019-Sep-17 10:00N 51°54' E 004°21'2 4.3
2019-Sep-17 09:30N 51°54' E 004°18'3 6.9
2019-Sep-17 09:00N 51°54' E 004°23'3 5.1
2019-Sep-17 08:30N 51°54' E 004°27'0 0.0
2019-Sep-17 08:00N 51°54' E 004°27'0 0.0
2019-Sep-17 07:30N 51°54' E 004°27'0 0.0
2019-Sep-17 07:00N 51°54' E 004°27'0 0.0
2019-Sep-17 06:30N 51°54' E 004°27'0 0.0
2019-Sep-17 05:57N 51°54' E 004°27'0 0.0
2019-Sep-17 05:30N 51°54' E 004°27'0 0.0
2019-Sep-17 05:00N 51°54' E 004°27'0 0.0
2019-Sep-17 04:30N 51°54' E 004°27'0 0.0
2019-Sep-17 04:00N 51°54' E 004°27'0 0.0
2019-Sep-17 03:30N 51°54' E 004°27'0 0.0
2019-Sep-17 03:00N 51°54' E 004°27'0 0.0
2019-Sep-17 02:30N 51°54' E 004°27'0 0.0
2019-Sep-17 02:00N 51°54' E 004°27'0 0.0
2019-Sep-17 01:30N 51°54' E 004°27'0 0.0
2019-Sep-17 01:00N 51°54' E 004°27'0 0.0
2019-Sep-17 00:30N 51°54' E 004°27'0 0.0
2019-Sep-17 00:00N 51°54' E 004°27'0 0.0
2019-Sep-16 23:30N 51°54' E 004°27'0 0.0
2019-Sep-16 23:00N 51°54' E 004°27'0 0.0
2019-Sep-16 22:30N 51°54' E 004°27'0 0.0
2019-Sep-16 22:00N 51°54' E 004°27'0 0.0
2019-Sep-16 21:30N 51°54' E 004°27'0 0.0
2019-Sep-16 21:00N 51°54' E 004°27'0 0.0
2019-Sep-16 20:30N 51°54' E 004°27'0 0.0
2019-Sep-16 20:00N 51°54' E 004°27'0 0.0
2019-Sep-16 19:30N 51°54' E 004°27'0 0.0
2019-Sep-16 19:00N 51°54' E 004°27'0 0.0
2019-Sep-16 18:30N 51°54' E 004°27'0 0.0
2019-Sep-16 18:00N 51°54' E 004°27'0 0.0
2019-Sep-16 17:30N 51°54' E 004°27'0 0.0
2019-Sep-16 17:00N 51°54' E 004°27'0 0.0
2019-Sep-16 16:30N 51°54' E 004°27'0 0.0
2019-Sep-16 16:00N 51°54' E 004°27'0 0.1
2019-Sep-16 15:30N 51°54' E 004°27'0 0.0
2019-Sep-16 15:00N 51°54' E 004°27'0 0.0
2019-Sep-16 14:30N 51°54' E 004°27'0 0.0
2019-Sep-16 14:00N 51°54' E 004°27'0 0.0
2019-Sep-16 13:30N 51°54' E 004°27'0 0.0
2019-Sep-16 13:00N 51°54' E 004°27'0 0.0
2019-Sep-16 12:30N 51°54' E 004°27'0 0.0
2019-Sep-16 12:00N 51°54' E 004°27'0 0.0
2019-Sep-16 11:30N 51°54' E 004°27'0 0.0
2019-Sep-16 11:00N 51°54' E 004°27'0 0.0
2019-Sep-16 10:30N 51°54' E 004°27'0 0.0
2019-Sep-16 09:57N 51°54' E 004°27'0 0.0
2019-Sep-16 09:30N 51°54' E 004°27'0 0.0
2019-Sep-16 09:00N 51°54' E 004°27'0 0.0
2019-Sep-16 08:30N 51°54' E 004°27'0 0.0
2019-Sep-16 08:00N 51°54' E 004°27'0 0.0
2019-Sep-16 07:30N 51°54' E 004°27'0 0.0
2019-Sep-16 07:00N 51°54' E 004°27'0 0.0
2019-Sep-16 06:30N 51°54' E 004°27'0 0.0
2019-Sep-16 06:00N 51°54' E 004°27'0 0.0
2019-Sep-16 05:30N 51°54' E 004°27'0 0.0
2019-Sep-16 05:00N 51°54' E 004°27'0 0.0
2019-Sep-16 04:30N 51°54' E 004°27'0 0.0
2019-Sep-16 04:00N 51°54' E 004°27'0 0.0
2019-Sep-16 03:30N 51°54' E 004°27'0 0.0
2019-Sep-16 03:00N 51°54' E 004°27'0 0.0
2019-Sep-16 02:30N 51°54' E 004°27'0 0.0
2019-Sep-16 02:00N 51°54' E 004°27'0 0.0
2019-Sep-16 01:30N 51°54' E 004°27'0 0.0
2019-Sep-16 01:00N 51°54' E 004°27'0 0.0
2019-Sep-16 00:30N 51°54' E 004°27'0 0.0
2019-Sep-16 00:00N 51°54' E 004°27'0 0.0
2019-Sep-15 23:30N 51°54' E 004°27'0 0.0
2019-Sep-15 23:00N 51°54' E 004°27'0 0.0
2019-Sep-15 22:29N 51°54' E 004°27'0 0.0
2019-Sep-15 21:59N 51°54' E 004°27'0 0.0
2019-Sep-15 21:29N 51°54' E 004°27'0 0.0
2019-Sep-15 20:59N 51°54' E 004°27'0 0.0
2019-Sep-15 20:29N 51°54' E 004°27'0 0.0
2019-Sep-15 19:59N 51°54' E 004°27'0 0.0
2019-Sep-15 19:29N 51°54' E 004°27'0 0.0
2019-Sep-15 18:59N 51°54' E 004°27'0 0.0
2019-Sep-15 18:29N 51°54' E 004°27'0 0.0
2019-Sep-15 17:59N 51°54' E 004°27'0 0.0
2019-Sep-15 17:29N 51°54' E 004°27'0 0.0
2019-Sep-15 16:59N 51°54' E 004°27'0 0.0
2019-Sep-15 16:30N 51°54' E 004°27'2 4.0
2019-Sep-15 16:01N 51°54' E 004°24'4 7.4
2019-Sep-15 15:30N 51°54' E 004°18'5 9.2
2019-Sep-15 15:00N 51°56' E 004°12'5 9.7
2019-Sep-15 14:30N 51°59' E 004°05'3 5.1
2019-Sep-15 14:00N 52°00' E 004°02'1 1.2
2019-Sep-15 13:30N 52°01' E 004°02'2 4.1
2019-Sep-15 13:00N 52°03' E 004°01'2 3.8
2019-Sep-15 12:30N 52°05' E 004°01'2 3.8
2019-Sep-15 12:00N 52°03' E 004°01'2 3.4
2019-Sep-15 11:30N 52°01' E 004°01'2 3.5
2019-Sep-15 11:00N 52°00' E 004°03'3 5.4
2019-Sep-15 10:30N 51°59' E 004°07'4 7.2
2019-Sep-15 10:00N 51°57' E 004°11'4 7.2
2019-Sep-15 09:30N 51°54' E 004°16'3 6.2
2019-Sep-15 09:00N 51°54' E 004°21'3 5.9
2019-Sep-15 08:30N 51°54' E 004°26'1 2.0
2019-Sep-15 07:59N 51°54' E 004°27'0 0.0
2019-Sep-15 07:29N 51°54' E 004°27'0 0.0
2019-Sep-15 06:59N 51°54' E 004°27'0 0.0
2019-Sep-15 06:29N 51°54' E 004°27'0 0.0
2019-Sep-15 06:00N 51°54' E 004°27'2 4.0
2019-Sep-15 05:30N 51°54' E 004°24'4 7.9
2019-Sep-15 05:00N 51°54' E 004°18'4 8.8
2019-Sep-15 04:30N 51°56' E 004°12'4 7.4
2019-Sep-15 04:00N 51°58' E 004°07'2 4.3
2019-Sep-15 03:30N 51°58' E 004°03'2 3.0
2019-Sep-15 02:59N 51°58' E 004°01'0 0.0
2019-Sep-15 02:29N 51°58' E 004°01'0 0.0
2019-Sep-15 01:59N 51°58' E 004°01'0 0.0
2019-Sep-15 01:29N 51°58' E 004°01'0 0.0
2019-Sep-15 00:59N 51°58' E 004°01'0 0.0
2019-Sep-15 00:29N 51°58' E 004°01'0 0.0
2019-Sep-14 23:59N 51°58' E 004°01'0 0.0
2019-Sep-14 23:29N 51°58' E 004°01'0 0.0
2019-Sep-14 22:59N 51°58' E 004°01'0 0.0
2019-Sep-14 22:29N 51°58' E 004°01'0 0.0
2019-Sep-14 21:59N 51°58' E 004°01'0 0.0
2019-Sep-14 21:29N 51°58' E 004°01'0 0.0
2019-Sep-14 20:59N 51°58' E 004°01'0 0.0
2019-Sep-14 20:29N 51°58' E 004°01'0 0.0
2019-Sep-14 19:59N 51°58' E 004°01'0 0.0
2019-Sep-14 19:29N 51°58' E 004°01'0 0.0
2019-Sep-14 18:59N 51°58' E 004°01'0 0.0
2019-Sep-14 18:29N 51°58' E 004°01'0 0.0
2019-Sep-14 17:59N 51°58' E 004°01'0 0.0
2019-Sep-14 17:29N 51°58' E 004°01'0 0.0
2019-Sep-14 16:59N 51°58' E 004°01'0 0.0
2019-Sep-14 16:29N 51°58' E 004°01'1 2.2
2019-Sep-14 16:01N 51°59' E 004°01'2 4.9
2019-Sep-14 15:31N 51°59' E 004°05'3 5.4
2019-Sep-14 15:01N 52°01' E 004°04'2 3.4
2019-Sep-14 14:31N 52°03' E 004°04'3 6.0
2019-Sep-14 14:01N 52°05' E 004°01'2 3.2
2019-Sep-14 13:31N 52°06' E 003°59'1 2.0
2019-Sep-14 13:01N 52°07' E 003°57'0 0.5
2019-Sep-14 12:31N 52°06' E 003°58'2 3.9
2019-Sep-14 12:01N 52°06' E 004°01'2 3.4
2019-Sep-14 11:31N 52°04' E 004°02'2 3.0
2019-Sep-14 11:01N 52°03' E 004°04'1 2.8
2019-Sep-14 10:31N 52°02' E 004°04'1 1.8
2019-Sep-14 10:01N 52°01' E 004°03'2 4.2
2019-Sep-14 09:31N 51°59' E 004°04'1 2.8
2019-Sep-14 09:00N 51°58' E 004°03'2 3.2
2019-Sep-14 08:31N 51°58' E 004°00'0 0.4
2019-Sep-14 07:59N 51°58' E 004°01'0 0.0
2019-Sep-14 07:26N 51°58' E 004°01'0 0.0
2019-Sep-14 06:59N 51°58' E 004°01'0 0.0
2019-Sep-14 06:29N 51°58' E 004°01'0 0.0
2019-Sep-14 05:59N 51°58' E 004°01'1 2.2
2019-Sep-14 05:31N 51°59' E 004°00'3 6.9
2019-Sep-14 05:01N 51°58' E 004°06'4 7.3
2019-Sep-14 04:31N 51°57' E 004°11'4 8.1
2019-Sep-14 04:00N 51°54' E 004°16'4 7.9
2019-Sep-14 03:30N 51°54' E 004°23'3 5.9
2019-Sep-14 03:01N 51°54' E 004°27'0 0.0
2019-Sep-14 02:29N 51°54' E 004°27'0 0.0
2019-Sep-14 01:59N 51°54' E 004°27'0 0.0
2019-Sep-14 01:29N 51°54' E 004°27'0 0.0
2019-Sep-14 00:59N 51°54' E 004°27'0 0.0
2019-Sep-14 00:29N 51°54' E 004°27'0 0.0
2019-Sep-13 23:59N 51°54' E 004°27'0 0.0
2019-Sep-13 23:29N 51°54' E 004°27'0 0.0
2019-Sep-13 22:59N 51°54' E 004°27'0 0.0
2019-Sep-13 22:29N 51°54' E 004°27'0 0.0
2019-Sep-13 21:59N 51°54' E 004°27'0 0.0
2019-Sep-13 21:29N 51°54' E 004°27'0 0.0
2019-Sep-13 20:59N 51°54' E 004°27'0 0.0
2019-Sep-13 20:29N 51°54' E 004°27'0 0.0
2019-Sep-13 19:59N 51°54' E 004°27'0 0.0
2019-Sep-13 19:29N 51°54' E 004°27'0 0.0
2019-Sep-13 18:59N 51°54' E 004°27'0 0.0
2019-Sep-13 18:29N 51°54' E 004°27'0 0.0
2019-Sep-13 17:59N 51°54' E 004°27'0 0.0
2019-Sep-13 17:29N 51°54' E 004°27'0 0.0
2019-Sep-13 16:59N 51°54' E 004°27'0 0.0
2019-Sep-13 16:29N 51°54' E 004°27'0 0.0
2019-Sep-13 15:59N 51°54' E 004°27'0 0.0
2019-Sep-13 15:18N 51°54' E 004°27'0 0.0
2019-Sep-13 15:00N 51°54' E 004°27'1 1.5
2019-Sep-13 14:30N 51°54' E 004°28'2 4.4
2019-Sep-13 14:00N 51°54' E 004°25'2 4.5
2019-Sep-13 13:30N 51°54' E 004°21'2 4.0
2019-Sep-13 13:00N 51°54' E 004°18'2 3.4
2019-Sep-13 12:30N 51°54' E 004°16'2 3.7
2019-Sep-13 12:00N 51°54' E 004°18'2 3.6
2019-Sep-13 11:30N 51°54' E 004°21'2 4.2
2019-Sep-13 11:00N 51°54' E 004°25'1 2.2
2019-Sep-13 10:31N 51°54' E 004°26'1 2.6
2019-Sep-13 10:00N 51°54' E 004°29'0 0.7
2019-Sep-13 09:30N 51°54' E 004°28'0 0.9
2019-Sep-13 08:58N 51°54' E 004°27'0 0.0
2019-Sep-13 08:28N 51°54' E 004°27'0 0.0
2019-Sep-13 07:55N 51°54' E 004°27'0 0.0
2019-Sep-13 07:28N 51°54' E 004°27'0 0.0
2019-Sep-13 06:58N 51°54' E 004°27'0 0.0
2019-Sep-13 06:28N 51°54' E 004°27'0 0.0
2019-Sep-13 05:59N 51°54' E 004°27'0 0.0
2019-Sep-13 05:28N 51°54' E 004°27'0 0.0
2019-Sep-13 04:58N 51°54' E 004°27'0 0.0
2019-Sep-13 04:25N 51°54' E 004°27'0 0.0
2019-Sep-13 03:58N 51°54' E 004°27'0 0.0
2019-Sep-13 03:28N 51°54' E 004°27'0 0.0
2019-Sep-13 02:58N 51°54' E 004°27'0 0.0
2019-Sep-13 02:28N 51°54' E 004°27'0 0.0
2019-Sep-13 01:28N 51°54' E 004°27'0 0.0
2019-Sep-13 00:58N 51°54' E 004°27'0 0.0
2019-Sep-13 00:28N 51°54' E 004°27'0 0.0
2019-Sep-12 23:58N 51°54' E 004°27'0 0.0
2019-Sep-12 23:28N 51°54' E 004°27'0 0.0
2019-Sep-12 22:58N 51°54' E 004°27'0 0.0
2019-Sep-12 22:28N 51°54' E 004°27'0 0.0
2019-Sep-12 21:58N 51°54' E 004°27'0 0.0
2019-Sep-12 21:28N 51°54' E 004°27'0 0.0
2019-Sep-12 20:58N 51°54' E 004°27'0 0.0
2019-Sep-12 20:28N 51°54' E 004°27'0 0.0
2019-Sep-12 19:55N 51°54' E 004°27'0 0.0
2019-Sep-12 19:28N 51°54' E 004°27'0 0.0
2019-Sep-12 18:58N 51°54' E 004°27'0 0.0
2019-Sep-12 18:28N 51°54' E 004°27'0 0.0
2019-Sep-12 17:58N 51°54' E 004°27'0 0.0
2019-Sep-12 17:28N 51°54' E 004°27'0 0.0
2019-Sep-12 17:00N 51°54' E 004°27'1 1.2
2019-Sep-12 16:31N 51°54' E 004°26'1 1.1
2019-Sep-12 16:01N 51°54' E 004°25'1 2.4
2019-Sep-12 15:31N 51°54' E 004°27'1 1.5
2019-Sep-12 15:01N 51°54' E 004°29'1 1.3
2019-Sep-12 14:30N 51°54' E 004°27'0 0.3
2019-Sep-12 13:58N 51°54' E 004°27'0 0.0
2019-Sep-12 13:28N 51°54' E 004°27'0 0.0
2019-Sep-12 12:55N 51°54' E 004°27'0 0.0
2019-Sep-12 12:28N 51°54' E 004°27'0 0.0
2019-Sep-12 11:58N 51°54' E 004°27'0 0.0
2019-Sep-12 11:28N 51°54' E 004°27'0 0.0
2019-Sep-12 10:58N 51°54' E 004°27'0 0.0
2019-Sep-12 10:29N 51°54' E 004°27'0 0.0
2019-Sep-12 09:59N 51°54' E 004°27'0 0.0
2019-Sep-12 09:28N 51°54' E 004°27'0 0.0
2019-Sep-12 08:58N 51°54' E 004°27'0 0.0
2019-Sep-12 08:28N 51°54' E 004°27'0 0.0
2019-Sep-12 07:58N 51°54' E 004°27'0 0.0
2019-Sep-12 07:28N 51°54' E 004°27'0 0.0
2019-Sep-12 06:58N 51°54' E 004°27'0 0.0
2019-Sep-12 06:28N 51°54' E 004°27'0 0.0
2019-Sep-12 05:58N 51°54' E 004°27'0 0.0
2019-Sep-12 05:28N 51°54' E 004°27'0 0.0
2019-Sep-12 04:58N 51°54' E 004°27'0 0.0
2019-Sep-12 04:28N 51°54' E 004°27'0 0.0
2019-Sep-12 03:58N 51°54' E 004°27'0 0.0
2019-Sep-12 03:28N 51°54' E 004°27'0 0.0
2019-Sep-12 02:58N 51°54' E 004°27'0 0.0
2019-Sep-12 02:28N 51°54' E 004°27'0 0.0
2019-Sep-12 01:58N 51°54' E 004°27'0 0.0
2019-Sep-12 01:28N 51°54' E 004°27'0 0.0
2019-Sep-12 00:58N 51°54' E 004°27'0 0.0
2019-Sep-12 00:31N 51°54' E 004°27'0 0.0
2019-Sep-11 23:58N 51°54' E 004°27'0 0.0
2019-Sep-11 23:30N 51°54' E 004°27'0 0.0
2019-Sep-11 23:00N 51°54' E 004°27'0 0.0
2019-Sep-11 22:30N 51°54' E 004°27'0 0.0
2019-Sep-11 22:00N 51°54' E 004°27'0 0.0
2019-Sep-11 21:30N 51°54' E 004°27'0 0.0
2019-Sep-11 21:00N 51°54' E 004°27'0 0.0
2019-Sep-11 20:30N 51°54' E 004°27'0 0.0
2019-Sep-11 20:00N 51°54' E 004°27'0 0.0
2019-Sep-11 19:30N 51°54' E 004°27'0 0.3
2019-Sep-11 19:01N 51°54' E 004°27'4 7.3
2019-Sep-11 18:30N 51°54' E 004°21'4 7.3
2019-Sep-11 18:00N 51°54' E 004°15'3 6.7
2019-Sep-11 17:30N 51°57' E 004°11'3 6.8
2019-Sep-11 17:00N 51°59' E 004°07'3 5.7
2019-Sep-11 16:30N 52°00' E 004°03'2 4.8
2019-Sep-11 16:01N 52°02' E 004°06'2 4.3
2019-Sep-11 15:30N 52°04' E 004°08'2 3.7
2019-Sep-11 15:01N 52°05' E 004°10'2 3.5
2019-Sep-11 14:30N 52°06' E 004°12'2 3.1
2019-Sep-11 14:01N 52°07' E 004°14'2 3.6
2019-Sep-11 13:31N 52°06' E 004°16'0 0.0
2019-Sep-11 12:58N 52°06' E 004°16'0 0.0
2019-Sep-11 12:30N 52°06' E 004°16'1 1.7
2019-Sep-11 12:00N 52°07' E 004°15'2 4.7
2019-Sep-11 11:30N 52°08' E 004°12'1 1.8
2019-Sep-11 11:00N 52°07' E 004°13'2 3.2
2019-Sep-11 10:30N 52°07' E 004°10'1 1.5
2019-Sep-11 10:00N 52°08' E 004°10'2 4.9
2019-Sep-11 09:30N 52°07' E 004°13'1 2.1
2019-Sep-11 09:00N 52°07' E 004°15'1 2.5
2019-Sep-11 08:30N 52°06' E 004°16'0 0.0
2019-Sep-11 08:00N 52°06' E 004°16'0 0.0
2019-Sep-11 07:30N 52°06' E 004°16'0 0.0
2019-Sep-11 06:59N 52°06' E 004°16'0 0.0
2019-Sep-11 06:29N 52°06' E 004°16'0 0.0
2019-Sep-11 05:59N 52°06' E 004°16'0 0.0
2019-Sep-11 05:29N 52°06' E 004°16'0 0.0
2019-Sep-11 04:59N 52°06' E 004°16'0 0.0
2019-Sep-11 04:29N 52°06' E 004°16'0 0.0
2019-Sep-11 03:59N 52°06' E 004°16'0 0.0
2019-Sep-11 03:29N 52°06' E 004°16'0 0.0
2019-Sep-11 02:59N 52°06' E 004°16'0 0.0
2019-Sep-11 02:29N 52°06' E 004°16'0 0.0
2019-Sep-11 01:59N 52°06' E 004°16'0 0.0
2019-Sep-11 01:26N 52°06' E 004°16'0 0.0
2019-Sep-11 00:59N 52°06' E 004°16'0 0.0
2019-Sep-11 00:29N 52°06' E 004°16'0 0.0
2019-Sep-10 23:59N 52°06' E 004°16'0 0.0
2019-Sep-10 23:29N 52°06' E 004°16'0 0.0
2019-Sep-10 22:59N 52°06' E 004°16'0 0.0
2019-Sep-10 22:29N 52°06' E 004°16'0 0.0
2019-Sep-10 21:59N 52°06' E 004°16'0 0.0
2019-Sep-10 21:29N 52°06' E 004°16'0 0.0
2019-Sep-10 20:59N 52°06' E 004°16'0 0.0
2019-Sep-10 20:29N 52°06' E 004°16'0 0.0
2019-Sep-10 19:59N 52°06' E 004°16'0 0.0
2019-Sep-10 19:29N 52°06' E 004°16'0 0.0
2019-Sep-10 18:59N 52°06' E 004°16'0 0.0
2019-Sep-10 18:26N 52°06' E 004°16'0 0.0
2019-Sep-10 17:59N 52°06' E 004°16'0 0.0
2019-Sep-10 17:26N 52°06' E 004°16'0 0.0
2019-Sep-10 16:59N 52°06' E 004°16'0 0.0
2019-Sep-10 16:29N 52°06' E 004°16'0 0.1
2019-Sep-10 16:00N 52°06' E 004°16'2 3.7
2019-Sep-10 15:30N 52°07' E 004°13'2 4.6
2019-Sep-10 15:00N 52°09' E 004°13'3 6.0
2019-Sep-10 14:31N 52°12' E 004°11'1 1.8
2019-Sep-10 14:01N 52°11' E 004°12'2 4.4
2019-Sep-10 13:31N 52°09' E 004°13'2 3.8
2019-Sep-10 13:01N 52°08' E 004°14'2 3.6
2019-Sep-10 12:28N 52°06' E 004°16'0 0.0
2019-Sep-10 11:58N 52°06' E 004°16'0 0.0
2019-Sep-10 11:28N 52°06' E 004°16'0 0.0
2019-Sep-10 10:58N 52°06' E 004°16'0 0.0
2019-Sep-10 10:28N 52°06' E 004°16'0 0.0
2019-Sep-10 09:58N 52°06' E 004°16'  
Track history (hours):
 
Tides and Currents Weather Stations Pressure Air Temp Water Temp Dewpoint Dewpoint Depression Visibility Wind Speed Wind Dir Waves Ship Positions

Eendracht (Netherlands)

Last reported at 2019-Sep-20 09:30 UTC. Time now 2019-Sep-20 09:37 UTC.
Position N 51°54' E 004°28'.

Length 59 m; beam 12 m; draft 5 m.

Type: Sailing vessel. MMSI: 244543000.

Date/timePositionNaut miles runAvg speedWind from/ knotsBaromVisibWave heightAir tempDewpointWater temp
2019-Sep-20 09:30N 51°54' E 004°28'1 2.5
2019-Sep-20 09:00N 51°54' E 004°26'2 4.9
2019-Sep-20 08:30N 51°54' E 004°22'3 5.0
2019-Sep-20 08:00N 51°54' E 004°18'3 5.2
2019-Sep-20 07:30N 51°54' E 004°22'3 6.0
2019-Sep-20 06:59N 51°54' E 004°27'0 0.0
2019-Sep-20 06:29N 51°54' E 004°27'0 0.0
2019-Sep-20 05:59N 51°54' E 004°27'0 0.0
2019-Sep-20 05:29N 51°54' E 004°27'0 0.0
2019-Sep-20 04:59N 51°54' E 004°27'0 0.0
2019-Sep-20 04:29N 51°54' E 004°27'0 0.0
2019-Sep-20 03:59N 51°54' E 004°27'0 0.0
2019-Sep-20 03:29N 51°54' E 004°27'0 0.0
2019-Sep-20 02:59N 51°54' E 004°27'0 0.0
2019-Sep-20 02:29N 51°54' E 004°27'0 0.0
2019-Sep-20 01:59N 51°54' E 004°27'0 0.0
2019-Sep-20 01:29N 51°54' E 004°27'0 0.0
2019-Sep-20 00:59N 51°54' E 004°27'0 0.0
2019-Sep-20 00:29N 51°54' E 004°27'0 0.0
2019-Sep-19 23:59N 51°54' E 004°27'0 0.0
2019-Sep-19 23:29N 51°54' E 004°27'0 0.0
2019-Sep-19 22:59N 51°54' E 004°27'0 0.0
2019-Sep-19 22:29N 51°54' E 004°27'0 0.0
2019-Sep-19 21:59N 51°54' E 004°27'0 0.0
2019-Sep-19 21:29N 51°54' E 004°27'0 0.0
2019-Sep-19 20:59N 51°54' E 004°27'0 0.0
2019-Sep-19 20:29N 51°54' E 004°27'0 0.0
2019-Sep-19 19:59N 51°54' E 004°27'0 0.0
2019-Sep-19 19:29N 51°54' E 004°27'0 0.0
2019-Sep-19 18:59N 51°54' E 004°27'0 0.0
2019-Sep-19 18:26N 51°54' E 004°27'0 0.0
2019-Sep-19 17:59N 51°54' E 004°27'0 0.0
2019-Sep-19 17:30N 51°54' E 004°27'1 2.5
2019-Sep-19 17:01N 51°54' E 004°29'2 3.6
2019-Sep-19 16:30N 51°54' E 004°26'3 5.3
2019-Sep-19 16:00N 51°54' E 004°22'3 5.7
2019-Sep-19 15:30N 51°54' E 004°17'3 6.6
2019-Sep-19 15:00N 51°54' E 004°23'3 5.5
2019-Sep-19 14:30N 51°54' E 004°27'0 0.0
2019-Sep-19 14:00N 51°54' E 004°27'0 0.0
2019-Sep-19 13:27N 51°54' E 004°27'0 0.0
2019-Sep-19 13:00N 51°54' E 004°27'0 0.0
2019-Sep-19 12:30N 51°54' E 004°27'0 0.0
2019-Sep-19 12:00N 51°54' E 004°27'0 0.0
2019-Sep-19 11:27N 51°54' E 004°27'0 0.0
2019-Sep-19 11:00N 51°54' E 004°27'0 0.0
2019-Sep-19 10:30N 51°54' E 004°27'0 0.0
2019-Sep-19 10:00N 51°54' E 004°27'0 0.0
2019-Sep-19 09:30N 51°54' E 004°27'0 0.0
2019-Sep-19 09:00N 51°54' E 004°27'0 0.0
2019-Sep-19 08:30N 51°54' E 004°27'0 0.0
2019-Sep-19 08:00N 51°54' E 004°27'0 0.0
2019-Sep-19 07:30N 51°54' E 004°27'0 0.0
2019-Sep-19 07:00N 51°54' E 004°27'0 0.0
2019-Sep-19 06:30N 51°54' E 004°27'0 0.0
2019-Sep-19 05:57N 51°54' E 004°27'0 0.0
2019-Sep-19 05:30N 51°54' E 004°27'0 0.0
2019-Sep-19 05:00N 51°54' E 004°27'0 0.0
2019-Sep-19 04:30N 51°54' E 004°27'0 0.0
2019-Sep-19 04:00N 51°54' E 004°27'0 0.0
2019-Sep-19 03:30N 51°54' E 004°27'0 0.0
2019-Sep-19 03:00N 51°54' E 004°27'0 0.0
2019-Sep-19 02:30N 51°54' E 004°27'0 0.0
2019-Sep-19 02:00N 51°54' E 004°27'0 0.0
2019-Sep-19 01:30N 51°54' E 004°27'0 0.0
2019-Sep-19 01:00N 51°54' E 004°27'0 0.0
2019-Sep-19 00:30N 51°54' E 004°27'0 0.0
2019-Sep-19 00:00N 51°54' E 004°27'0 0.0
2019-Sep-18 23:30N 51°54' E 004°27'0 0.0
2019-Sep-18 23:00N 51°54' E 004°27'0 0.0
2019-Sep-18 22:30N 51°54' E 004°27'0 0.0
2019-Sep-18 22:00N 51°54' E 004°27'0 0.0
2019-Sep-18 21:30N 51°54' E 004°27'0 0.0
2019-Sep-18 21:00N 51°54' E 004°27'0 0.0
2019-Sep-18 20:30N 51°54' E 004°27'0 0.0
2019-Sep-18 20:00N 51°54' E 004°27'0 0.0
2019-Sep-18 19:30N 51°54' E 004°27'0 0.0
2019-Sep-18 19:00N 51°54' E 004°27'0 0.0
2019-Sep-18 18:30N 51°54' E 004°27'0 0.0
2019-Sep-18 18:00N 51°54' E 004°27'0 0.0
2019-Sep-18 17:30N 51°54' E 004°27'0 0.0
2019-Sep-18 17:00N 51°54' E 004°27'0 0.0
2019-Sep-18 16:30N 51°54' E 004°27'1 1.4
2019-Sep-18 16:01N 51°54' E 004°28'1 1.2
2019-Sep-18 15:30N 51°54' E 004°27'1 1.5
2019-Sep-18 15:01N 51°53' E 004°26'1 2.8
2019-Sep-18 14:30N 51°54' E 004°24'3 5.2
2019-Sep-18 14:00N 51°54' E 004°20'3 5.3
2019-Sep-18 13:30N 51°54' E 004°16'3 5.0
2019-Sep-18 13:01N 51°56' E 004°13'3 5.0
2019-Sep-18 12:30N 51°57' E 004°10'2 4.6
2019-Sep-18 12:01N 51°58' E 004°06'3 5.3
2019-Sep-18 11:31N 51°58' E 004°02'2 3.4
2019-Sep-18 11:00N 51°59' E 004°04'1 2.1
2019-Sep-18 10:30N 51°59' E 004°03'4 8.2
2019-Sep-18 10:01N 51°58' E 004°09'5 9.1
2019-Sep-18 09:31N 51°55' E 004°15'4 8.2
2019-Sep-18 09:01N 51°54' E 004°21'4 7.3
2019-Sep-18 08:31N 51°54' E 004°27'0 0.0
2019-Sep-18 07:58N 51°54' E 004°27'0 0.0
2019-Sep-18 07:28N 51°54' E 004°27'0 0.0
2019-Sep-18 06:58N 51°54' E 004°27'0 0.0
2019-Sep-18 06:28N 51°54' E 004°27'0 0.0
2019-Sep-18 05:58N 51°54' E 004°27'0 0.0
2019-Sep-18 05:28N 51°54' E 004°27'0 0.0
2019-Sep-18 04:58N 51°54' E 004°27'0 0.0
2019-Sep-18 04:28N 51°54' E 004°27'0 0.0
2019-Sep-18 03:58N 51°54' E 004°27'0 0.0
2019-Sep-18 03:28N 51°54' E 004°27'0 0.0
2019-Sep-18 02:58N 51°54' E 004°27'0 0.0
2019-Sep-18 02:28N 51°54' E 004°27'0 0.0
2019-Sep-18 01:58N 51°54' E 004°27'0 0.0
2019-Sep-18 01:28N 51°54' E 004°27'0 0.0
2019-Sep-18 00:58N 51°54' E 004°27'0 0.0
2019-Sep-18 00:28N 51°54' E 004°27'0 0.0
2019-Sep-17 23:58N 51°54' E 004°27'0 0.0
2019-Sep-17 23:28N 51°54' E 004°27'0 0.0
2019-Sep-17 22:58N 51°54' E 004°27'0 0.0
2019-Sep-17 22:28N 51°54' E 004°27'0 0.0
2019-Sep-17 21:58N 51°54' E 004°27'0 0.0
2019-Sep-17 21:28N 51°54' E 004°27'0 0.0
2019-Sep-17 20:58N 51°54' E 004°27'0 0.0
2019-Sep-17 20:28N 51°54' E 004°27'0 0.0
2019-Sep-17 20:01N 51°54' E 004°27'0 0.0
2019-Sep-17 19:31N 51°54' E 004°27'0 0.0
2019-Sep-17 19:00N 51°54' E 004°27'0 0.0
2019-Sep-17 18:31N 51°54' E 004°27'0 0.0
2019-Sep-17 18:00N 51°54' E 004°27'0 0.0
2019-Sep-17 17:28N 51°54' E 004°27'1 1.5
2019-Sep-17 17:00N 51°54' E 004°28'3 5.5
2019-Sep-17 16:30N 51°54' E 004°24'4 7.8
2019-Sep-17 16:00N 51°54' E 004°18'2 3.4
2019-Sep-17 15:30N 51°54' E 004°20'3 5.1
2019-Sep-17 15:00N 51°54' E 004°25'2 3.4
2019-Sep-17 14:30N 51°54' E 004°27'0 0.0
2019-Sep-17 14:00N 51°54' E 004°27'0 0.0
2019-Sep-17 13:30N 51°54' E 004°27'0 0.0
2019-Sep-17 13:00N 51°54' E 004°27'0 0.0
2019-Sep-17 12:30N 51°54' E 004°27'0 0.0
2019-Sep-17 11:58N 51°54' E 004°27'0 0.0
2019-Sep-17 11:30N 51°54' E 004°27'1 1.1
2019-Sep-17 11:01N 51°54' E 004°28'1 2.6
2019-Sep-17 10:31N 51°54' E 004°26'3 6.1
2019-Sep-17 10:00N 51°54' E 004°21'2 4.3
2019-Sep-17 09:30N 51°54' E 004°18'3 6.9
2019-Sep-17 09:00N 51°54' E 004°23'3 5.1
2019-Sep-17 08:30N 51°54' E 004°27'0 0.0
2019-Sep-17 08:00N 51°54' E 004°27'0 0.0
2019-Sep-17 07:30N 51°54' E 004°27'0 0.0
2019-Sep-17 07:00N 51°54' E 004°27'0 0.0
2019-Sep-17 06:30N 51°54' E 004°27'0 0.0
2019-Sep-17 05:57N 51°54' E 004°27'0 0.0
2019-Sep-17 05:30N 51°54' E 004°27'0 0.0
2019-Sep-17 05:00N 51°54' E 004°27'0 0.0
2019-Sep-17 04:30N 51°54' E 004°27'0 0.0
2019-Sep-17 04:00N 51°54' E 004°27'0 0.0
2019-Sep-17 03:30N 51°54' E 004°27'0 0.0
2019-Sep-17 03:00N 51°54' E 004°27'0 0.0
2019-Sep-17 02:30N 51°54' E 004°27'0 0.0
2019-Sep-17 02:00N 51°54' E 004°27'0 0.0
2019-Sep-17 01:30N 51°54' E 004°27'0 0.0
2019-Sep-17 01:00N 51°54' E 004°27'0 0.0
2019-Sep-17 00:30N 51°54' E 004°27'0 0.0
2019-Sep-17 00:00N 51°54' E 004°27'0 0.0
2019-Sep-16 23:30N 51°54' E 004°27'0 0.0
2019-Sep-16 23:00N 51°54' E 004°27'0 0.0
2019-Sep-16 22:30N 51°54' E 004°27'0 0.0
2019-Sep-16 22:00N 51°54' E 004°27'0 0.0
2019-Sep-16 21:30N 51°54' E 004°27'0 0.0
2019-Sep-16 21:00N 51°54' E 004°27'0 0.0
2019-Sep-16 20:30N 51°54' E 004°27'0 0.0
2019-Sep-16 20:00N 51°54' E 004°27'0 0.0
2019-Sep-16 19:30N 51°54' E 004°27'0 0.0
2019-Sep-16 19:00N 51°54' E 004°27'0 0.0
2019-Sep-16 18:30N 51°54' E 004°27'0 0.0
2019-Sep-16 18:00N 51°54' E 004°27'0 0.0
2019-Sep-16 17:30N 51°54' E 004°27'0 0.0
2019-Sep-16 17:00N 51°54' E 004°27'0 0.0
2019-Sep-16 16:30N 51°54' E 004°27'0 0.0
2019-Sep-16 16:00N 51°54' E 004°27'0 0.1
2019-Sep-16 15:30N 51°54' E 004°27'0 0.0
2019-Sep-16 15:00N 51°54' E 004°27'0 0.0
2019-Sep-16 14:30N 51°54' E 004°27'0 0.0
2019-Sep-16 14:00N 51°54' E 004°27'0 0.0
2019-Sep-16 13:30N 51°54' E 004°27'0 0.0
2019-Sep-16 13:00N 51°54' E 004°27'0 0.0
2019-Sep-16 12:30N 51°54' E 004°27'0 0.0
2019-Sep-16 12:00N 51°54' E 004°27'0 0.0
2019-Sep-16 11:30N 51°54' E 004°27'0 0.0
2019-Sep-16 11:00N 51°54' E 004°27'0 0.0
2019-Sep-16 10:30N 51°54' E 004°27'0 0.0
2019-Sep-16 09:57N 51°54' E 004°27'0 0.0
2019-Sep-16 09:30N 51°54' E 004°27'0 0.0
2019-Sep-16 09:00N 51°54' E 004°27'0 0.0
2019-Sep-16 08:30N 51°54' E 004°27'0 0.0
2019-Sep-16 08:00N 51°54' E 004°27'0 0.0
2019-Sep-16 07:30N 51°54' E 004°27'0 0.0
2019-Sep-16 07:00N 51°54' E 004°27'0 0.0
2019-Sep-16 06:30N 51°54' E 004°27'0 0.0
2019-Sep-16 06:00N 51°54' E 004°27'0 0.0
2019-Sep-16 05:30N 51°54' E 004°27'0 0.0
2019-Sep-16 05:00N 51°54' E 004°27'0 0.0
2019-Sep-16 04:30N 51°54' E 004°27'0 0.0
2019-Sep-16 04:00N 51°54' E 004°27'0 0.0
2019-Sep-16 03:30N 51°54' E 004°27'0 0.0
2019-Sep-16 03:00N 51°54' E 004°27'0 0.0
2019-Sep-16 02:30N 51°54' E 004°27'0 0.0
2019-Sep-16 02:00N 51°54' E 004°27'0 0.0
2019-Sep-16 01:30N 51°54' E 004°27'0 0.0
2019-Sep-16 01:00N 51°54' E 004°27'0 0.0
2019-Sep-16 00:30N 51°54' E 004°27'0 0.0
2019-Sep-16 00:00N 51°54' E 004°27'0 0.0
2019-Sep-15 23:30N 51°54' E 004°27'0 0.0
2019-Sep-15 23:00N 51°54' E 004°27'0 0.0
2019-Sep-15 22:29N 51°54' E 004°27'0 0.0
2019-Sep-15 21:59N 51°54' E 004°27'0 0.0
2019-Sep-15 21:29N 51°54' E 004°27'0 0.0
2019-Sep-15 20:59N 51°54' E 004°27'0 0.0
2019-Sep-15 20:29N 51°54' E 004°27'0 0.0
2019-Sep-15 19:59N 51°54' E 004°27'0 0.0
2019-Sep-15 19:29N 51°54' E 004°27'0 0.0
2019-Sep-15 18:59N 51°54' E 004°27'0 0.0
2019-Sep-15 18:29N 51°54' E 004°27'0 0.0
2019-Sep-15 17:59N 51°54' E 004°27'0 0.0
2019-Sep-15 17:29N 51°54' E 004°27'0 0.0
2019-Sep-15 16:59N 51°54' E 004°27'0 0.0
2019-Sep-15 16:30N 51°54' E 004°27'2 4.0
2019-Sep-15 16:01N 51°54' E 004°24'4 7.4
2019-Sep-15 15:30N 51°54' E 004°18'5 9.2
2019-Sep-15 15:00N 51°56' E 004°12'5 9.7
2019-Sep-15 14:30N 51°59' E 004°05'3 5.1
2019-Sep-15 14:00N 52°00' E 004°02'1 1.2
2019-Sep-15 13:30N 52°01' E 004°02'2 4.1
2019-Sep-15 13:00N 52°03' E 004°01'2 3.8
2019-Sep-15 12:30N 52°05' E 004°01'2 3.8
2019-Sep-15 12:00N 52°03' E 004°01'2 3.4
2019-Sep-15 11:30N 52°01' E 004°01'2 3.5
2019-Sep-15 11:00N 52°00' E 004°03'3 5.4
2019-Sep-15 10:30N 51°59' E 004°07'4 7.2
2019-Sep-15 10:00N 51°57' E 004°11'4 7.2
2019-Sep-15 09:30N 51°54' E 004°16'3 6.2
2019-Sep-15 09:00N 51°54' E 004°21'3 5.9
2019-Sep-15 08:30N 51°54' E 004°26'1 2.0
2019-Sep-15 07:59N 51°54' E 004°27'0 0.0
2019-Sep-15 07:29N 51°54' E 004°27'0 0.0
2019-Sep-15 06:59N 51°54' E 004°27'0 0.0
2019-Sep-15 06:29N 51°54' E 004°27'0 0.0
2019-Sep-15 06:00N 51°54' E 004°27'2 4.0
2019-Sep-15 05:30N 51°54' E 004°24'4 7.9
2019-Sep-15 05:00N 51°54' E 004°18'4 8.8
2019-Sep-15 04:30N 51°56' E 004°12'4 7.4
2019-Sep-15 04:00N 51°58' E 004°07'2 4.3
2019-Sep-15 03:30N 51°58' E 004°03'2 3.0
2019-Sep-15 02:59N 51°58' E 004°01'0 0.0
2019-Sep-15 02:29N 51°58' E 004°01'0 0.0
2019-Sep-15 01:59N 51°58' E 004°01'0 0.0
2019-Sep-15 01:29N 51°58' E 004°01'0 0.0
2019-Sep-15 00:59N 51°58' E 004°01'0 0.0
2019-Sep-15 00:29N 51°58' E 004°01'0 0.0
2019-Sep-14 23:59N 51°58' E 004°01'0 0.0
2019-Sep-14 23:29N 51°58' E 004°01'0 0.0
2019-Sep-14 22:59N 51°58' E 004°01'0 0.0
2019-Sep-14 22:29N 51°58' E 004°01'0 0.0
2019-Sep-14 21:59N 51°58' E 004°01'0 0.0
2019-Sep-14 21:29N 51°58' E 004°01'0 0.0
2019-Sep-14 20:59N 51°58' E 004°01'0 0.0
2019-Sep-14 20:29N 51°58' E 004°01'0 0.0
2019-Sep-14 19:59N 51°58' E 004°01'0 0.0
2019-Sep-14 19:29N 51°58' E 004°01'0 0.0
2019-Sep-14 18:59N 51°58' E 004°01'0 0.0
2019-Sep-14 18:29N 51°58' E 004°01'0 0.0
2019-Sep-14 17:59N 51°58' E 004°01'0 0.0
2019-Sep-14 17:29N 51°58' E 004°01'0 0.0
2019-Sep-14 16:59N 51°58' E 004°01'0 0.0
2019-Sep-14 16:29N 51°58' E 004°01'1 2.2
2019-Sep-14 16:01N 51°59' E 004°01'2 4.9
2019-Sep-14 15:31N 51°59' E 004°05'3 5.4
2019-Sep-14 15:01N 52°01' E 004°04'2 3.4
2019-Sep-14 14:31N 52°03' E 004°04'3 6.0
2019-Sep-14 14:01N 52°05' E 004°01'2 3.2
2019-Sep-14 13:31N 52°06' E 003°59'1 2.0
2019-Sep-14 13:01N 52°07' E 003°57'0 0.5
2019-Sep-14 12:31N 52°06' E 003°58'2 3.9
2019-Sep-14 12:01N 52°06' E 004°01'2 3.4
2019-Sep-14 11:31N 52°04' E 004°02'2 3.0
2019-Sep-14 11:01N 52°03' E 004°04'1 2.8
2019-Sep-14 10:31N 52°02' E 004°04'1 1.8
2019-Sep-14 10:01N 52°01' E 004°03'2 4.2
2019-Sep-14 09:31N 51°59' E 004°04'1 2.8
2019-Sep-14 09:00N 51°58' E 004°03'2 3.2
2019-Sep-14 08:31N 51°58' E 004°00'0 0.4
2019-Sep-14 07:59N 51°58' E 004°01'0 0.0
2019-Sep-14 07:26N 51°58' E 004°01'0 0.0
2019-Sep-14 06:59N 51°58' E 004°01'0 0.0
2019-Sep-14 06:29N 51°58' E 004°01'0 0.0
2019-Sep-14 05:59N 51°58' E 004°01'1 2.2
2019-Sep-14 05:31N 51°59' E 004°00'3 6.9
2019-Sep-14 05:01N 51°58' E 004°06'4 7.3
2019-Sep-14 04:31N 51°57' E 004°11'4 8.1
2019-Sep-14 04:00N 51°54' E 004°16'4 7.9
2019-Sep-14 03:30N 51°54' E 004°23'3 5.9
2019-Sep-14 03:01N 51°54' E 004°27'0 0.0
2019-Sep-14 02:29N 51°54' E 004°27'0 0.0
2019-Sep-14 01:59N 51°54' E 004°27'0 0.0
2019-Sep-14 01:29N 51°54' E 004°27'0 0.0
2019-Sep-14 00:59N 51°54' E 004°27'0 0.0
2019-Sep-14 00:29N 51°54' E 004°27'0 0.0
2019-Sep-13 23:59N 51°54' E 004°27'0 0.0
2019-Sep-13 23:29N 51°54' E 004°27'0 0.0
2019-Sep-13 22:59N 51°54' E 004°27'0 0.0
2019-Sep-13 22:29N 51°54' E 004°27'0 0.0
2019-Sep-13 21:59N 51°54' E 004°27'0 0.0
2019-Sep-13 21:29N 51°54' E 004°27'0 0.0
2019-Sep-13 20:59N 51°54' E 004°27'0 0.0
2019-Sep-13 20:29N 51°54' E 004°27'0 0.0
2019-Sep-13 19:59N 51°54' E 004°27'0 0.0
2019-Sep-13 19:29N 51°54' E 004°27'0 0.0
2019-Sep-13 18:59N 51°54' E 004°27'0 0.0
2019-Sep-13 18:29N 51°54' E 004°27'0 0.0
2019-Sep-13 17:59N 51°54' E 004°27'0 0.0
2019-Sep-13 17:29N 51°54' E 004°27'0 0.0
2019-Sep-13 16:59N 51°54' E 004°27'0 0.0
2019-Sep-13 16:29N 51°54' E 004°27'0 0.0
2019-Sep-13 15:59N 51°54' E 004°27'0 0.0
2019-Sep-13 15:18N 51°54' E 004°27'0 0.0
2019-Sep-13 15:00N 51°54' E 004°27'1 1.5
2019-Sep-13 14:30N 51°54' E 004°28'2 4.4
2019-Sep-13 14:00N 51°54' E 004°25'2 4.5
2019-Sep-13 13:30N 51°54' E 004°21'2 4.0
2019-Sep-13 13:00N 51°54' E 004°18'2 3.4
2019-Sep-13 12:30N 51°54' E 004°16'2 3.7
2019-Sep-13 12:00N 51°54' E 004°18'2 3.6
2019-Sep-13 11:30N 51°54' E 004°21'2 4.2
2019-Sep-13 11:00N 51°54' E 004°25'1 2.2
2019-Sep-13 10:31N 51°54' E 004°26'1 2.6
2019-Sep-13 10:00N 51°54' E 004°29'0 0.7
2019-Sep-13 09:30N 51°54' E 004°28'0 0.9
2019-Sep-13 08:58N 51°54' E 004°27'0 0.0
2019-Sep-13 08:28N 51°54' E 004°27'0 0.0
2019-Sep-13 07:55N 51°54' E 004°27'0 0.0
2019-Sep-13 07:28N 51°54' E 004°27'0 0.0
2019-Sep-13 06:58N 51°54' E 004°27'0 0.0
2019-Sep-13 06:28N 51°54' E 004°27'0 0.0
2019-Sep-13 05:59N 51°54' E 004°27'0 0.0
2019-Sep-13 05:28N 51°54' E 004°27'0 0.0
2019-Sep-13 04:58N 51°54' E 004°27'0 0.0
2019-Sep-13 04:25N 51°54' E 004°27'0 0.0
2019-Sep-13 03:58N 51°54' E 004°27'0 0.0
2019-Sep-13 03:28N 51°54' E 004°27'0 0.0
2019-Sep-13 02:58N 51°54' E 004°27'0 0.0
2019-Sep-13 02:28N 51°54' E 004°27'0 0.0
2019-Sep-13 01:28N 51°54' E 004°27'0 0.0
2019-Sep-13 00:58N 51°54' E 004°27'0 0.0
2019-Sep-13 00:28N 51°54' E 004°27'0 0.0
2019-Sep-12 23:58N 51°54' E 004°27'0 0.0
2019-Sep-12 23:28N 51°54' E 004°27'0 0.0
2019-Sep-12 22:58N 51°54' E 004°27'0 0.0
2019-Sep-12 22:28N 51°54' E 004°27'0 0.0
2019-Sep-12 21:58N 51°54' E 004°27'0 0.0
2019-Sep-12 21:28N 51°54' E 004°27'0 0.0
2019-Sep-12 20:58N 51°54' E 004°27'0 0.0
2019-Sep-12 20:28N 51°54' E 004°27'0 0.0
2019-Sep-12 19:55N 51°54' E 004°27'0 0.0
2019-Sep-12 19:28N 51°54' E 004°27'0 0.0
2019-Sep-12 18:58N 51°54' E 004°27'0 0.0
2019-Sep-12 18:28N 51°54' E 004°27'0 0.0
2019-Sep-12 17:58N 51°54' E 004°27'0 0.0
2019-Sep-12 17:28N 51°54' E 004°27'0 0.0
2019-Sep-12 17:00N 51°54' E 004°27'1 1.2
2019-Sep-12 16:31N 51°54' E 004°26'1 1.1
2019-Sep-12 16:01N 51°54' E 004°25'1 2.4
2019-Sep-12 15:31N 51°54' E 004°27'1 1.5
2019-Sep-12 15:01N 51°54' E 004°29'1 1.3
2019-Sep-12 14:30N 51°54' E 004°27'0 0.3
2019-Sep-12 13:58N 51°54' E 004°27'0 0.0
2019-Sep-12 13:28N 51°54' E 004°27'0 0.0
2019-Sep-12 12:55N 51°54' E 004°27'0 0.0
2019-Sep-12 12:28N 51°54' E 004°27'0 0.0
2019-Sep-12 11:58N 51°54' E 004°27'0 0.0
2019-Sep-12 11:28N 51°54' E 004°27'0 0.0
2019-Sep-12 10:58N 51°54' E 004°27'0 0.0
2019-Sep-12 10:29N 51°54' E 004°27'0 0.0
2019-Sep-12 09:59N 51°54' E 004°27'0 0.0
2019-Sep-12 09:28N 51°54' E 004°27'0 0.0
2019-Sep-12 08:58N 51°54' E 004°27'0 0.0
2019-Sep-12 08:28N 51°54' E 004°27'0 0.0
2019-Sep-12 07:58N 51°54' E 004°27'0 0.0
2019-Sep-12 07:28N 51°54' E 004°27'0 0.0
2019-Sep-12 06:58N 51°54' E 004°27'0 0.0
2019-Sep-12 06:28N 51°54' E 004°27'0 0.0
2019-Sep-12 05:58N 51°54' E 004°27'0 0.0
2019-Sep-12 05:28N 51°54' E 004°27'0 0.0
2019-Sep-12 04:58N 51°54' E 004°27'0 0.0
2019-Sep-12 04:28N 51°54' E 004°27'0 0.0
2019-Sep-12 03:58N 51°54' E 004°27'0 0.0
2019-Sep-12 03:28N 51°54' E 004°27'0 0.0
2019-Sep-12 02:58N 51°54' E 004°27'0 0.0
2019-Sep-12 02:28N 51°54' E 004°27'0 0.0
2019-Sep-12 01:58N 51°54' E 004°27'0 0.0
2019-Sep-12 01:28N 51°54' E 004°27'0 0.0
2019-Sep-12 00:58N 51°54' E 004°27'0 0.0
2019-Sep-12 00:31N 51°54' E 004°27'0 0.0
2019-Sep-11 23:58N 51°54' E 004°27'0 0.0
2019-Sep-11 23:30N 51°54' E 004°27'0 0.0
2019-Sep-11 23:00N 51°54' E 004°27'0 0.0
2019-Sep-11 22:30N 51°54' E 004°27'0 0.0
2019-Sep-11 22:00N 51°54' E 004°27'0 0.0
2019-Sep-11 21:30N 51°54' E 004°27'0 0.0
2019-Sep-11 21:00N 51°54' E 004°27'0 0.0
2019-Sep-11 20:30N 51°54' E 004°27'0 0.0
2019-Sep-11 20:00N 51°54' E 004°27'0 0.0
2019-Sep-11 19:30N 51°54' E 004°27'0 0.3
2019-Sep-11 19:01N 51°54' E 004°27'4 7.3
2019-Sep-11 18:30N 51°54' E 004°21'4 7.3
2019-Sep-11 18:00N 51°54' E 004°15'3 6.7
2019-Sep-11 17:30N 51°57' E 004°11'3 6.8
2019-Sep-11 17:00N 51°59' E 004°07'3 5.7
2019-Sep-11 16:30N 52°00' E 004°03'2 4.8
2019-Sep-11 16:01N 52°02' E 004°06'2 4.3
2019-Sep-11 15:30N 52°04' E 004°08'2 3.7
2019-Sep-11 15:01N 52°05' E 004°10'2 3.5
2019-Sep-11 14:30N 52°06' E 004°12'2 3.1
2019-Sep-11 14:01N 52°07' E 004°14'2 3.6
2019-Sep-11 13:31N 52°06' E 004°16'0 0.0
2019-Sep-11 12:58N 52°06' E 004°16'0 0.0
2019-Sep-11 12:30N 52°06' E 004°16'1 1.7
2019-Sep-11 12:00N 52°07' E 004°15'2 4.7
2019-Sep-11 11:30N 52°08' E 004°12'1 1.8
2019-Sep-11 11:00N 52°07' E 004°13'2 3.2
2019-Sep-11 10:30N 52°07' E 004°10'1 1.5
2019-Sep-11 10:00N 52°08' E 004°10'2 4.9
2019-Sep-11 09:30N 52°07' E 004°13'1 2.1
2019-Sep-11 09:00N 52°07' E 004°15'1 2.5
2019-Sep-11 08:30N 52°06' E 004°16'0 0.0
2019-Sep-11 08:00N 52°06' E 004°16'0 0.0
2019-Sep-11 07:30N 52°06' E 004°16'0 0.0
2019-Sep-11 06:59N 52°06' E 004°16'0 0.0
2019-Sep-11 06:29N 52°06' E 004°16'0 0.0
2019-Sep-11 05:59N 52°06' E 004°16'0 0.0
2019-Sep-11 05:29N 52°06' E 004°16'0 0.0
2019-Sep-11 04:59N 52°06' E 004°16'0 0.0
2019-Sep-11 04:29N 52°06' E 004°16'0 0.0
2019-Sep-11 03:59N 52°06' E 004°16'0 0.0
2019-Sep-11 03:29N 52°06' E 004°16'0 0.0
2019-Sep-11 02:59N 52°06' E 004°16'0 0.0
2019-Sep-11 02:29N 52°06' E 004°16'0 0.0
2019-Sep-11 01:59N 52°06' E 004°16'0 0.0
2019-Sep-11 01:26N 52°06' E 004°16'0 0.0
2019-Sep-11 00:59N 52°06' E 004°16'0 0.0
2019-Sep-11 00:29N 52°06' E 004°16'0 0.0
2019-Sep-10 23:59N 52°06' E 004°16'0 0.0
2019-Sep-10 23:29N 52°06' E 004°16'0 0.0
2019-Sep-10 22:59N 52°06' E 004°16'0 0.0
2019-Sep-10 22:29N 52°06' E 004°16'0 0.0
2019-Sep-10 21:59N 52°06' E 004°16'0 0.0
2019-Sep-10 21:29N 52°06' E 004°16'0 0.0
2019-Sep-10 20:59N 52°06' E 004°16'0 0.0
2019-Sep-10 20:29N 52°06' E 004°16'0 0.0
2019-Sep-10 19:59N 52°06' E 004°16'0 0.0
2019-Sep-10 19:29N 52°06' E 004°16'0 0.0
2019-Sep-10 18:59N 52°06' E 004°16'0 0.0
2019-Sep-10 18:26N 52°06' E 004°16'0 0.0
2019-Sep-10 17:59N 52°06' E 004°16'0 0.0
2019-Sep-10 17:26N 52°06' E 004°16'0 0.0
2019-Sep-10 16:59N 52°06' E 004°16'0 0.0
2019-Sep-10 16:29N 52°06' E 004°16'0 0.1
2019-Sep-10 16:00N 52°06' E 004°16'2 3.7
2019-Sep-10 15:30N 52°07' E 004°13'2 4.6
2019-Sep-10 15:00N 52°09' E 004°13'3 6.0
2019-Sep-10 14:31N 52°12' E 004°11'1 1.8
2019-Sep-10 14:01N 52°11' E 004°12'2 4.4
2019-Sep-10 13:31N 52°09' E 004°13'2 3.8
2019-Sep-10 13:01N 52°08' E 004°14'2 3.6
2019-Sep-10 12:28N 52°06' E 004°16'0 0.0
2019-Sep-10 11:58N 52°06' E 004°16'0 0.0
2019-Sep-10 11:28N 52°06' E 004°16'0 0.0
2019-Sep-10 10:58N 52°06' E 004°16'0 0.0
2019-Sep-10 10:28N 52°06' E 004°16'0 0.0
2019-Sep-10 09:58N 52°06' E 004°16'  

Dump ship's entire track history